sensor_id;sensor_type;location;lat;lon;timestamp;pressure;altitude;pressure_sealevel;temperature;humidity
10392;BME280;5242;49.244;6.774;2022-07-23T00:02:48;99507.53;;;20.29;70.50
10392;BME280;5242;49.244;6.774;2022-07-23T00:10:40;99519.81;;;20.28;76.45
10392;BME280;5242;49.244;6.774;2022-07-23T00:18:32;99591.28;;;20.03;75.95
10392;BME280;5242;49.244;6.774;2022-07-23T00:26:24;99630.53;;;20.21;77.82
10392;BME280;5242;49.244;6.774;2022-07-23T00:34:16;99628.06;;;20.27;76.96
10392;BME280;5242;49.244;6.774;2022-07-23T00:42:08;99597.75;;;20.19;75.25
10392;BME280;5242;49.244;6.774;2022-07-23T00:49:59;99531.16;;;20.10;73.24
10392;BME280;5242;49.244;6.774;2022-07-23T00:57:52;99530.28;;;19.90;74.48
10392;BME280;5242;49.244;6.774;2022-07-23T01:05:44;99501.22;;;19.78;79.61
10392;BME280;5242;49.244;6.774;2022-07-23T01:13:41;99485.09;;;19.73;77.29
10392;BME280;5242;49.244;6.774;2022-07-23T01:21:36;99502.66;;;19.59;77.04
10392;BME280;5242;49.244;6.774;2022-07-23T01:29:28;99523.84;;;19.69;79.08
10392;BME280;5242;49.244;6.774;2022-07-23T01:37:20;99570.16;;;19.89;79.43
10392;BME280;5242;49.244;6.774;2022-07-23T01:45:12;99556.66;;;19.94;77.59
10392;BME280;5242;49.244;6.774;2022-07-23T01:53:03;99541.78;;;19.85;76.90
10392;BME280;5242;49.244;6.774;2022-07-23T02:00:56;99546.75;;;19.66;76.78
10392;BME280;5242;49.244;6.774;2022-07-23T02:08:48;99511.75;;;19.56;79.99
10392;BME280;5242;49.244;6.774;2022-07-23T02:16:39;99515.75;;;19.51;79.91
10392;BME280;5242;49.244;6.774;2022-07-23T02:24:31;99527.13;;;19.57;79.14
10392;BME280;5242;49.244;6.774;2022-07-23T02:32:23;99506.28;;;19.52;80.25
10392;BME280;5242;49.244;6.774;2022-07-23T02:40:17;99524.19;;;19.41;81.47
10392;BME280;5242;49.244;6.774;2022-07-23T02:48:09;99535.25;;;19.41;83.32
10392;BME280;5242;49.244;6.774;2022-07-23T02:56:04;99502.56;;;19.36;85.33
10392;BME280;5242;49.244;6.774;2022-07-23T03:03:56;99487.63;;;19.29;86.03
10392;BME280;5242;49.244;6.774;2022-07-23T03:11:47;99482.09;;;19.29;88.65
10392;BME280;5242;49.244;6.774;2022-07-23T03:19:39;99506.63;;;19.24;84.96
10392;BME280;5242;49.244;6.774;2022-07-23T03:27:31;99499.81;;;19.36;85.95
10392;BME280;5242;49.244;6.774;2022-07-23T03:35:23;99507.63;;;19.41;83.92
10392;BME280;5242;49.244;6.774;2022-07-23T03:43:15;99515.78;;;19.48;84.77
10392;BME280;5242;49.244;6.774;2022-07-23T03:51:07;99530.44;;;19.45;83.19
10392;BME280;5242;49.244;6.774;2022-07-23T03:58:59;99526.75;;;19.24;84.26
10392;BME280;5242;49.244;6.774;2022-07-23T04:06:51;99539.59;;;19.04;85.64
10392;BME280;5242;49.244;6.774;2022-07-23T04:14:43;99537.00;;;18.89;86.56
10392;BME280;5242;49.244;6.774;2022-07-23T04:22:35;99542.16;;;18.84;87.20
10392;BME280;5242;49.244;6.774;2022-07-23T04:30:28;99575.97;;;18.92;86.70
10392;BME280;5242;49.244;6.774;2022-07-23T04:38:20;99590.41;;;19.10;87.14
10392;BME280;5242;49.244;6.774;2022-07-23T04:46:11;99592.94;;;19.31;86.70
10392;BME280;5242;49.244;6.774;2022-07-23T04:54:04;99599.22;;;19.36;89.91
10392;BME280;5242;49.244;6.774;2022-07-23T05:01:55;99609.88;;;19.33;86.60
10392;BME280;5242;49.244;6.774;2022-07-23T05:09:47;99614.19;;;19.34;85.30
10392;BME280;5242;49.244;6.774;2022-07-23T05:17:39;99607.81;;;19.41;86.26
10392;BME280;5242;49.244;6.774;2022-07-23T05:25:31;99622.66;;;19.54;88.22
10392;BME280;5242;49.244;6.774;2022-07-23T05:33:23;99631.13;;;19.74;85.04
10392;BME280;5242;49.244;6.774;2022-07-23T05:41:15;99633.25;;;19.94;87.40
10392;BME280;5242;49.244;6.774;2022-07-23T05:49:06;99645.81;;;20.02;87.94
10392;BME280;5242;49.244;6.774;2022-07-23T05:57:00;99643.00;;;20.33;86.39
10392;BME280;5242;49.244;6.774;2022-07-23T06:04:52;99649.19;;;20.95;84.46
10392;BME280;5242;49.244;6.774;2022-07-23T06:12:43;99660.50;;;21.27;83.62
10392;BME280;5242;49.244;6.774;2022-07-23T06:20:35;99657.84;;;21.44;82.47
10392;BME280;5242;49.244;6.774;2022-07-23T06:28:27;99660.78;;;21.97;80.09
10392;BME280;5242;49.244;6.774;2022-07-23T06:36:19;99669.84;;;22.17;78.58
10392;BME280;5242;49.244;6.774;2022-07-23T06:44:11;99669.63;;;22.28;78.00
10392;BME280;5242;49.244;6.774;2022-07-23T06:52:03;99677.06;;;22.51;75.70
10392;BME280;5242;49.244;6.774;2022-07-23T06:59:55;99688.72;;;22.78;74.63
10392;BME280;5242;49.244;6.774;2022-07-23T07:07:47;99693.69;;;23.49;71.67
10392;BME280;5242;49.244;6.774;2022-07-23T07:15:39;99703.31;;;23.90;68.58
10392;BME280;5242;49.244;6.774;2022-07-23T07:23:31;99703.03;;;24.56;67.81
10392;BME280;5242;49.244;6.774;2022-07-23T07:31:23;99706.53;;;25.07;66.10
10392;BME280;5242;49.244;6.774;2022-07-23T07:39:15;99704.06;;;25.35;63.75
10392;BME280;5242;49.244;6.774;2022-07-23T07:47:07;99716.94;;;26.11;62.36
10392;BME280;5242;49.244;6.774;2022-07-23T07:54:59;99714.78;;;26.46;59.70
10392;BME280;5242;49.244;6.774;2022-07-23T08:02:53;99719.81;;;27.01;58.19
10392;BME280;5242;49.244;6.774;2022-07-23T08:10:47;99721.53;;;26.99;57.32
10392;BME280;5242;49.244;6.774;2022-07-23T08:18:39;99724.28;;;27.58;54.98
10392;BME280;5242;49.244;6.774;2022-07-23T08:26:31;99705.72;;;28.25;52.58
10392;BME280;5242;49.244;6.774;2022-07-23T08:34:23;99711.44;;;29.15;51.61
10392;BME280;5242;49.244;6.774;2022-07-23T08:42:15;99712.81;;;30.12;47.36
10392;BME280;5242;49.244;6.774;2022-07-23T08:50:07;99719.59;;;31.01;45.85
10392;BME280;5242;49.244;6.774;2022-07-23T08:58:00;99710.31;;;32.60;44.11
10392;BME280;5242;49.244;6.774;2022-07-23T09:05:52;99707.84;;;34.05;39.64
10392;BME280;5242;49.244;6.774;2022-07-23T09:13:52;99702.97;;;35.59;35.62
10392;BME280;5242;49.244;6.774;2022-07-23T09:21:45;99707.28;;;35.13;36.46
10392;BME280;5242;49.244;6.774;2022-07-23T09:29:37;99702.13;;;35.17;34.28
10392;BME280;5242;49.244;6.774;2022-07-23T09:37:29;99703.44;;;35.11;35.90
10392;BME280;5242;49.244;6.774;2022-07-23T09:45:21;99697.88;;;36.60;31.75
10392;BME280;5242;49.244;6.774;2022-07-23T09:53:25;99696.13;;;37.25;33.22
10392;BME280;5242;49.244;6.774;2022-07-23T10:01:17;99708.25;;;38.92;29.52
10392;BME280;5242;49.244;6.774;2022-07-23T10:09:12;99715.34;;;38.72;28.94
10392;BME280;5242;49.244;6.774;2022-07-23T10:17:08;99712.94;;;38.31;27.99
10392;BME280;5242;49.244;6.774;2022-07-23T10:41:32;99719.38;;;35.14;30.78
10392;BME280;5242;49.244;6.774;2022-07-23T10:49:30;99710.50;;;35.87;28.22
10392;BME280;5242;49.244;6.774;2022-07-23T10:57:26;99703.66;;;36.43;29.02
10392;BME280;5242;49.244;6.774;2022-07-23T11:05:24;99702.22;;;38.96;25.74
10392;BME280;5242;49.244;6.774;2022-07-23T11:37:29;99706.00;;;34.97;29.04
10392;BME280;5242;49.244;6.774;2022-07-23T11:45:24;99704.28;;;34.66;29.25
10392;BME280;5242;49.244;6.774;2022-07-23T11:53:27;99696.56;;;34.38;29.48
10392;BME280;5242;49.244;6.774;2022-07-23T12:01:19;99689.19;;;35.27;28.68
10392;BME280;5242;49.244;6.774;2022-07-23T12:09:12;99682.66;;;35.49;27.63
10392;BME280;5242;49.244;6.774;2022-07-23T12:17:10;99684.38;;;35.17;28.43
10392;BME280;5242;49.244;6.774;2022-07-23T12:25:05;99679.94;;;36.16;26.89
10392;BME280;5242;49.244;6.774;2022-07-23T12:32:58;99682.22;;;35.34;27.49
10392;BME280;5242;49.244;6.774;2022-07-23T12:40:53;99683.91;;;36.86;26.62
10392;BME280;5242;49.244;6.774;2022-07-23T12:56:46;99675.63;;;36.88;24.95
10392;BME280;5242;49.244;6.774;2022-07-23T13:04:39;99681.31;;;39.20;23.08
10392;BME280;5242;49.244;6.774;2022-07-23T13:12:32;99669.16;;;40.79;22.81
10392;BME280;5242;49.244;6.774;2022-07-23T13:20:24;99674.97;;;40.95;21.75
10392;BME280;5242;49.244;6.774;2022-07-23T13:28:16;99670.00;;;40.95;21.55
10392;BME280;5242;49.244;6.774;2022-07-23T13:36:11;99682.72;;;38.73;23.77
10392;BME280;5242;49.244;6.774;2022-07-23T13:44:04;99682.72;;;37.00;24.85
10392;BME280;5242;49.244;6.774;2022-07-23T13:51:57;99682.94;;;35.93;25.69
10392;BME280;5242;49.244;6.774;2022-07-23T13:59:49;99677.00;;;34.85;26.54
10392;BME280;5242;49.244;6.774;2022-07-23T14:07:41;99674.19;;;34.74;26.65
10392;BME280;5242;49.244;6.774;2022-07-23T14:15:36;99677.56;;;34.45;26.87
10392;BME280;5242;49.244;6.774;2022-07-23T14:23:30;99674.47;;;33.92;27.46
10392;BME280;5242;49.244;6.774;2022-07-23T14:31:22;99666.75;;;33.70;27.59
10392;BME280;5242;49.244;6.774;2022-07-23T14:39:14;99666.25;;;33.88;27.23
10392;BME280;5242;49.244;6.774;2022-07-23T14:47:07;99660.47;;;33.32;27.86
10392;BME280;5242;49.244;6.774;2022-07-23T14:55:00;99651.41;;;32.62;28.49
10392;BME280;5242;49.244;6.774;2022-07-23T15:02:52;99644.03;;;32.39;28.84
10392;BME280;5242;49.244;6.774;2022-07-23T15:10:47;99640.81;;;32.52;28.68
10392;BME280;5242;49.244;6.774;2022-07-23T15:18:38;99638.09;;;32.68;28.14
10392;BME280;5242;49.244;6.774;2022-07-23T15:26:30;99631.16;;;32.64;28.21
10392;BME280;5242;49.244;6.774;2022-07-23T15:34:22;99639.63;;;32.69;28.17
10392;BME280;5242;49.244;6.774;2022-07-23T15:42:14;99650.84;;;32.58;28.38
10392;BME280;5242;49.244;6.774;2022-07-23T15:50:07;99649.31;;;32.57;28.50
10392;BME280;5242;49.244;6.774;2022-07-23T15:57:59;99635.00;;;32.66;28.21
10392;BME280;5242;49.244;6.774;2022-07-23T16:05:51;99630.97;;;32.41;28.15
10392;BME280;5242;49.244;6.774;2022-07-23T16:13:43;99627.84;;;32.34;28.31
10392;BME280;5242;49.244;6.774;2022-07-23T16:21:36;99620.38;;;32.25;28.50
10392;BME280;5242;49.244;6.774;2022-07-23T16:29:27;99618.06;;;31.92;28.74
10392;BME280;5242;49.244;6.774;2022-07-23T16:37:19;99619.56;;;31.61;28.85
10392;BME280;5242;49.244;6.774;2022-07-23T16:45:11;99635.44;;;31.38;29.30
10392;BME280;5242;49.244;6.774;2022-07-23T16:53:03;99639.16;;;31.09;29.79
10392;BME280;5242;49.244;6.774;2022-07-23T17:00:55;99634.19;;;30.98;29.70
10392;BME280;5242;49.244;6.774;2022-07-23T17:08:47;99633.81;;;30.90;30.39
10392;BME280;5242;49.244;6.774;2022-07-23T17:16:39;99633.41;;;30.97;29.86
10392;BME280;5242;49.244;6.774;2022-07-23T17:24:31;99641.81;;;30.77;30.36
10392;BME280;5242;49.244;6.774;2022-07-23T17:32:23;99638.97;;;30.57;30.36
10392;BME280;5242;49.244;6.774;2022-07-23T17:40:15;99640.06;;;30.44;30.48
10392;BME280;5242;49.244;6.774;2022-07-23T17:48:07;99644.06;;;30.23;30.78
10392;BME280;5242;49.244;6.774;2022-07-23T17:55:59;99638.38;;;30.02;31.41
10392;BME280;5242;49.244;6.774;2022-07-23T18:03:52;99642.53;;;29.77;31.60
10392;BME280;5242;49.244;6.774;2022-07-23T18:11:44;99651.63;;;29.33;32.42
10392;BME280;5242;49.244;6.774;2022-07-23T18:19:36;99644.72;;;28.95;33.03
10392;BME280;5242;49.244;6.774;2022-07-23T18:27:28;99654.47;;;28.52;33.87
10392;BME280;5242;49.244;6.774;2022-07-23T18:35:22;99669.03;;;28.13;34.97
10392;BME280;5242;49.244;6.774;2022-07-23T18:43:15;99676.25;;;27.31;35.80
10392;BME280;5242;49.244;6.774;2022-07-23T18:51:07;99680.00;;;26.79;37.00
10392;BME280;5242;49.244;6.774;2022-07-23T18:58:59;99686.19;;;26.33;38.21
10392;BME280;5242;49.244;6.774;2022-07-23T19:06:52;99701.09;;;26.08;39.45
10392;BME280;5242;49.244;6.774;2022-07-23T19:14:43;99711.66;;;25.91;40.67
10392;BME280;5242;49.244;6.774;2022-07-23T19:22:36;99713.19;;;25.70;40.32
10392;BME280;5242;49.244;6.774;2022-07-23T19:30:28;99714.84;;;25.46;40.91
10392;BME280;5242;49.244;6.774;2022-07-23T19:38:20;99724.84;;;25.21;42.34
10392;BME280;5242;49.244;6.774;2022-07-23T19:46:11;99716.16;;;24.93;43.18
10392;BME280;5242;49.244;6.774;2022-07-23T19:54:03;99721.06;;;24.64;43.42
10392;BME280;5242;49.244;6.774;2022-07-23T20:01:57;99744.88;;;24.39;43.97
10392;BME280;5242;49.244;6.774;2022-07-23T20:09:49;99745.81;;;24.20;43.81
10392;BME280;5242;49.244;6.774;2022-07-23T20:17:41;99751.84;;;23.89;45.71
10392;BME280;5242;49.244;6.774;2022-07-23T20:25:33;99771.69;;;23.58;46.30
10392;BME280;5242;49.244;6.774;2022-07-23T20:33:24;99769.63;;;23.30;47.63
10392;BME280;5242;49.244;6.774;2022-07-23T20:41:16;99781.09;;;22.99;47.89
10392;BME280;5242;49.244;6.774;2022-07-23T20:49:08;99782.84;;;22.73;48.68
10392;BME280;5242;49.244;6.774;2022-07-23T20:57:01;99794.03;;;22.49;49.70
10392;BME280;5242;49.244;6.774;2022-07-23T21:04:53;99803.34;;;22.39;49.26
10392;BME280;5242;49.244;6.774;2022-07-23T21:12:46;99806.94;;;22.20;50.03
10392;BME280;5242;49.244;6.774;2022-07-23T21:20:38;99820.75;;;22.00;51.03
10392;BME280;5242;49.244;6.774;2022-07-23T21:28:49;99823.28;;;21.90;51.71
10392;BME280;5242;49.244;6.774;2022-07-23T21:36:41;99825.22;;;21.70;51.69
10392;BME280;5242;49.244;6.774;2022-07-23T21:44:33;99828.63;;;21.58;52.86
10392;BME280;5242;49.244;6.774;2022-07-23T21:52:25;99836.38;;;21.43;53.29
10392;BME280;5242;49.244;6.774;2022-07-23T22:00:22;99836.41;;;21.12;57.77
10392;BME280;5242;49.244;6.774;2022-07-23T22:08:17;99839.97;;;20.82;55.18
10392;BME280;5242;49.244;6.774;2022-07-23T22:16:09;99843.31;;;20.70;55.94
10392;BME280;5242;49.244;6.774;2022-07-23T22:24:01;99843.84;;;20.57;56.17
10392;BME280;5242;49.244;6.774;2022-07-23T22:31:53;99845.09;;;20.49;55.81
10392;BME280;5242;49.244;6.774;2022-07-23T22:39:44;99849.63;;;20.32;57.50
10392;BME280;5242;49.244;6.774;2022-07-23T22:47:36;99851.84;;;20.10;56.79
10392;BME280;5242;49.244;6.774;2022-07-23T22:55:28;99855.28;;;19.80;60.46
10392;BME280;5242;49.244;6.774;2022-07-23T23:03:25;99868.44;;;19.62;60.60
10392;BME280;5242;49.244;6.774;2022-07-23T23:11:17;99850.78;;;19.48;58.97
10392;BME280;5242;49.244;6.774;2022-07-23T23:19:09;99857.91;;;19.46;58.66
10392;BME280;5242;49.244;6.774;2022-07-23T23:27:01;99860.75;;;19.31;61.04
10392;BME280;5242;49.244;6.774;2022-07-23T23:34:52;99852.09;;;19.33;60.69
10392;BME280;5242;49.244;6.774;2022-07-23T23:42:44;99854.97;;;19.11;61.55
10392;BME280;5242;49.244;6.774;2022-07-23T23:50:36;99848.75;;;18.97;60.98
10392;BME280;5242;49.244;6.774;2022-07-23T23:58:28;99849.25;;;18.77;62.93
